createdAt,value
2022-10-15T04:00:25.449Z,9.14
2022-10-15T04:03:29.217Z,9.07
2022-10-15T04:06:34.154Z,8.98
2022-10-15T04:09:39.293Z,9.05
2022-10-15T04:12:47.497Z,9.02
2022-10-15T04:15:50.720Z,9.09
2022-10-15T04:18:52.841Z,9.06
2022-10-15T04:21:55.198Z,8.95
2022-10-15T04:24:59.766Z,8.85
2022-10-15T04:28:02.333Z,8.72
2022-10-15T04:31:04.738Z,8.73
2022-10-15T04:34:07.803Z,8.76
2022-10-15T04:37:10.722Z,8.90
2022-10-15T04:40:13.602Z,8.95
2022-10-15T04:43:15.825Z,8.86
2022-10-15T04:46:18.434Z,8.81
2022-10-15T04:49:21.414Z,8.81
2022-10-15T04:52:24.107Z,8.78
2022-10-15T04:55:26.553Z,8.81
2022-10-15T04:58:33.110Z,8.79
2022-10-15T05:01:35.372Z,8.89
2022-10-15T05:04:38.498Z,8.80
2022-10-15T05:07:40.561Z,8.70
2022-10-15T05:10:44.171Z,8.69
2022-10-15T05:13:47.173Z,8.81
2022-10-15T05:16:49.549Z,8.81
2022-10-15T05:19:51.953Z,8.86
2022-10-15T05:22:55.597Z,8.79
2022-10-15T05:26:03.794Z,8.84
2022-10-15T05:29:06.302Z,8.84
2022-10-15T05:32:08.679Z,8.78
2022-10-15T05:35:11.105Z,8.88
2022-10-15T05:38:15.781Z,9.06
2022-10-15T05:41:18.509Z,8.95
2022-10-15T05:44:20.573Z,9.20
2022-10-15T05:47:23.063Z,9.19
2022-10-15T05:50:31.034Z,9.26
2022-10-15T05:53:33.945Z,9.17
2022-10-15T05:56:36.657Z,9.29
2022-10-15T05:59:38.990Z,9.28
2022-10-15T06:02:41.288Z,9.27
2022-10-15T06:05:43.666Z,9.34
2022-10-15T06:08:46.104Z,9.34
2022-10-15T06:11:48.399Z,9.31
2022-10-15T06:14:53.448Z,9.37
2022-10-15T06:17:55.752Z,9.53
2022-10-15T06:20:58.101Z,9.64
2022-10-15T06:24:00.423Z,9.73
2022-10-15T06:27:02.462Z,9.93
2022-10-15T06:30:05.420Z,10.12
2022-10-15T06:33:07.467Z,10.27
2022-10-15T06:36:11.074Z,10.47
2022-10-15T06:39:13.089Z,10.58
2022-10-15T06:42:16.662Z,10.52
2022-10-15T06:45:22.419Z,10.58
2022-10-15T06:48:24.741Z,10.76
2022-10-15T06:51:26.803Z,11.01
2022-10-15T06:54:29.106Z,11.16
2022-10-15T06:57:31.421Z,11.26
2022-10-15T07:03:39.061Z,11.27
2022-10-15T07:06:42.169Z,11.40
2022-10-15T07:09:44.190Z,11.45
2022-10-15T07:12:46.704Z,11.53
2022-10-15T07:15:53.722Z,11.64
2022-10-15T07:18:56.079Z,11.75
2022-10-15T07:21:58.147Z,11.98
2022-10-15T07:25:00.424Z,11.97
2022-10-15T07:28:02.560Z,12.04
2022-10-15T07:31:06.623Z,12.12
2022-10-15T07:34:08.650Z,12.30
2022-10-15T07:37:10.941Z,12.32
2022-10-15T07:40:13.108Z,12.45
2022-10-15T07:43:16.833Z,12.48
2022-10-15T07:46:18.882Z,12.61
2022-10-15T07:49:21.159Z,12.64
2022-10-15T07:52:23.429Z,12.81
2022-10-15T07:55:25.946Z,12.96
2022-10-15T07:58:30.282Z,13.08
2022-10-15T08:01:33.759Z,13.18
2022-10-15T08:08:48.531Z,13.26
2022-10-15T08:11:51.113Z,13.37
2022-10-15T08:14:54.681Z,13.52
2022-10-15T08:17:56.970Z,13.52
2022-10-15T08:21:00.868Z,13.53
2022-10-15T08:24:03.216Z,13.79
2022-10-15T08:27:08.273Z,13.81
2022-10-15T08:30:11.472Z,13.97
2022-10-15T08:33:13.498Z,14.11
2022-10-15T08:36:15.787Z,14.22
2022-10-15T08:39:19.772Z,14.30
2022-10-15T08:42:31.830Z,14.44
2022-10-15T08:45:42.350Z,14.56
2022-10-15T08:48:53.193Z,14.67
2022-10-15T08:52:06.852Z,14.79
2022-10-15T08:55:13.052Z,14.89
2022-10-15T08:58:30.242Z,15.08
2022-10-15T09:01:43.966Z,15.15
2022-10-15T09:05:26.410Z,15.34
2022-10-15T09:08:38.397Z,15.48
2022-10-15T09:12:01.699Z,15.61
2022-10-15T09:15:10.503Z,15.76
2022-10-15T09:18:20.464Z,15.67
2022-10-15T09:21:27.844Z,15.73
2022-10-15T09:24:35.172Z,15.72
2022-10-15T09:27:39.739Z,15.65
2022-10-15T09:30:59.634Z,15.63
2022-10-15T09:34:19.429Z,15.67
2022-10-15T09:37:29.751Z,15.74
2022-10-15T09:40:59.105Z,15.84
2022-10-15T09:44:04.573Z,16.04
2022-10-15T09:47:34.222Z,16.07
2022-10-15T09:50:44.141Z,16.01
2022-10-15T09:53:56.872Z,16.04
2022-10-15T09:56:58.967Z,16.31
2022-10-15T10:00:07.430Z,16.45
2022-10-15T10:03:15.887Z,16.64
2022-10-15T10:06:18.493Z,16.65
2022-10-15T10:09:24.554Z,16.72
2022-10-15T10:12:33.910Z,16.98
2022-10-15T10:15:41.240Z,17.13
2022-10-15T10:18:50.934Z,17.16
2022-10-15T10:22:07.034Z,17.26
2022-10-15T10:25:31.885Z,17.21
2022-10-15T10:28:44.183Z,17.12
2022-10-15T10:31:51.206Z,17.09
2022-10-15T10:35:04.005Z,17.26
2022-10-15T10:38:06.392Z,17.50
2022-10-15T10:41:10.487Z,17.53
2022-10-15T10:44:21.225Z,17.57
2022-10-15T10:47:26.045Z,17.87
2022-10-15T10:50:33.888Z,17.91
2022-10-15T10:53:46.370Z,18.00
2022-10-15T10:56:48.976Z,18.16
2022-10-15T10:59:53.745Z,18.21
2022-10-15T11:02:56.982Z,18.21
2022-10-15T11:06:30.084Z,18.15
2022-10-15T11:09:50.045Z,18.14
2022-10-15T11:13:30.450Z,18.14
2022-10-15T11:17:15.513Z,18.28
2022-10-15T11:20:46.212Z,18.44
2022-10-15T11:24:15.057Z,18.49
2022-10-15T11:27:44.880Z,18.52
2022-10-15T11:31:06.125Z,18.45
2022-10-15T11:34:16.419Z,18.39
2022-10-15T11:37:41.140Z,18.46
2022-10-15T11:40:51.845Z,18.44
2022-10-15T11:44:12.560Z,18.32
2022-10-15T11:47:32.889Z,18.33
2022-10-15T11:50:37.293Z,18.23
2022-10-15T11:54:01.872Z,18.22
2022-10-15T11:57:04.982Z,18.28
2022-10-15T12:00:29.505Z,18.33
2022-10-15T12:03:39.081Z,18.35
2022-10-15T12:06:46.511Z,18.39
2022-10-15T12:09:53.826Z,18.50
2022-10-15T12:13:08.895Z,18.60
2022-10-15T12:16:25.618Z,18.72
2022-10-15T12:19:44.885Z,18.67
2022-10-15T12:22:47.080Z,18.68
2022-10-15T12:25:49.269Z,18.73
2022-10-15T12:28:59.571Z,18.82
2022-10-15T12:32:04.543Z,18.88
2022-10-15T12:35:15.719Z,18.96
2022-10-15T12:38:29.314Z,18.98
2022-10-15T12:41:47.908Z,18.93
2022-10-15T12:44:50.876Z,18.88
2022-10-15T12:48:16.221Z,18.79
2022-10-15T12:51:24.044Z,18.77
2022-10-15T12:54:41.476Z,18.70
2022-10-15T12:57:46.486Z,18.62
2022-10-15T13:00:48.816Z,18.54
2022-10-15T13:03:50.876Z,18.40
2022-10-15T13:06:53.507Z,18.42
2022-10-15T13:09:55.977Z,18.43
2022-10-15T13:13:03.700Z,18.50
2022-10-15T13:16:09.500Z,18.41
2022-10-15T13:19:25.577Z,18.38
2022-10-15T13:22:30.450Z,18.42
2022-10-15T13:25:33.153Z,18.44
2022-10-15T13:28:38.019Z,18.40
2022-10-15T13:31:40.987Z,18.26
2022-10-15T13:34:43.591Z,18.23
2022-10-15T13:37:46.853Z,18.10
2022-10-15T13:40:51.031Z,18.06
2022-10-15T13:43:58.603Z,18.07
2022-10-15T13:47:00.568Z,18.25
2022-10-15T13:50:26.398Z,18.12
2022-10-15T13:53:37.513Z,18.06
2022-10-15T13:56:47.750Z,17.99
2022-10-15T13:59:54.037Z,17.90
2022-10-15T14:03:16.603Z,17.86
2022-10-15T14:06:29.916Z,17.79
2022-10-15T14:09:38.366Z,17.75
2022-10-15T14:12:40.679Z,17.78
2022-10-15T14:15:47.073Z,17.79
2022-10-15T14:18:52.357Z,17.83
2022-10-15T14:21:54.552Z,17.77
2022-10-15T14:24:57.173Z,17.68
2022-10-15T14:27:59.215Z,17.58
2022-10-15T14:31:02.325Z,17.55
2022-10-15T14:34:04.826Z,17.50
2022-10-15T14:37:28.423Z,17.45
2022-10-15T14:40:30.785Z,17.35
2022-10-15T14:43:35.239Z,17.33
2022-10-15T14:46:41.449Z,17.25
